createdAt,value
2022-10-30T00:01:40.325Z,100078.59
2022-10-30T00:04:10.073Z,100084.33
2022-10-30T00:06:39.112Z,100091.44
2022-10-30T00:09:08.886Z,100079.58
2022-10-30T00:11:37.821Z,100078.73
2022-10-30T00:14:07.395Z,100087.00
2022-10-30T00:16:36.335Z,100092.52
2022-10-30T00:19:05.569Z,100089.45
2022-10-30T00:21:36.001Z,100087.77
2022-10-30T00:24:07.903Z,100096.03
2022-10-30T00:26:37.794Z,100097.72
2022-10-30T00:29:07.386Z,100093.89
2022-10-30T00:31:38.017Z,100095.58
2022-10-30T00:34:07.045Z,100085.86
2022-10-30T00:36:39.515Z,100078.13
2022-10-30T00:39:08.277Z,100080.58
2022-10-30T00:41:39.206Z,100066.49
2022-10-30T00:44:47.332Z,100075.91
2022-10-30T00:47:28.431Z,100074.76
2022-10-30T00:50:08.941Z,100073.07
2022-10-30T00:52:46.642Z,100081.88
2022-10-30T00:55:19.895Z,100080.72
2022-10-30T00:57:50.702Z,100079.34
2022-10-30T01:00:22.962Z,100072.69
2022-10-30T01:02:52.857Z,100079.27
2022-10-30T01:05:23.225Z,100089.75
2022-10-30T01:07:55.171Z,100084.78
2022-10-30T01:10:23.831Z,100094.95
2022-10-30T01:12:54.094Z,100087.76
2022-10-30T01:15:33.569Z,100090.52
2022-10-30T01:18:25.822Z,100095.72
2022-10-30T01:21:21.781Z,100086.08
2022-10-30T01:24:14.236Z,100082.25
2022-10-30T01:27:08.372Z,100078.88
2022-10-30T01:29:46.490Z,100072.00
2022-10-30T01:32:39.289Z,100057.61
2022-10-30T01:35:20.870Z,100057.84
2022-10-30T01:38:04.129Z,100043.22
2022-10-30T01:40:33.806Z,100041.31
2022-10-30T01:43:02.706Z,100037.41
2022-10-30T01:45:44.924Z,100054.70
2022-10-30T01:49:01.952Z,100065.41
2022-10-30T01:52:04.700Z,100068.47
2022-10-30T01:55:02.166Z,100072.60
2022-10-30T01:57:55.862Z,100073.36
2022-10-30T02:00:25.420Z,100076.34
2022-10-30T02:02:54.941Z,100082.84
2022-10-30T02:05:44.765Z,100089.95
2022-10-30T02:08:13.609Z,100082.77
2022-10-30T02:10:44.812Z,100076.41
2022-10-30T02:13:14.792Z,100064.78
2022-10-30T02:15:46.321Z,100067.45
2022-10-30T02:18:15.812Z,100085.05
2022-10-30T02:20:44.297Z,100094.15
2022-10-30T02:23:15.467Z,100098.28
2022-10-30T02:25:47.604Z,100096.59
2022-10-30T02:28:18.339Z,100087.18
2022-10-30T02:30:49.498Z,100102.63
2022-10-30T02:33:20.405Z,100093.00
2022-10-30T02:35:52.481Z,100098.20
2022-10-30T02:38:22.144Z,100088.78
2022-10-30T02:40:53.102Z,100101.63
2022-10-30T02:43:22.057Z,100112.02
2022-10-30T02:45:52.672Z,100112.78
2022-10-30T02:48:23.866Z,100114.16
2022-10-30T02:50:53.604Z,100119.55
2022-10-30T02:53:23.758Z,100110.45
2022-10-30T02:55:52.872Z,100110.36
2022-10-30T02:58:23.112Z,100115.56
2022-10-30T03:00:52.735Z,100123.73
2022-10-30T03:03:24.110Z,100119.83
2022-10-30T03:05:53.199Z,100118.68
2022-10-30T03:08:23.420Z,100121.13
2022-10-30T03:10:52.695Z,100114.55
2022-10-30T03:13:21.962Z,100111.17
2022-10-30T03:15:51.093Z,100110.64
2022-10-30T03:18:20.748Z,100107.05
2022-10-30T03:20:49.848Z,100106.43
2022-10-30T03:23:19.003Z,100111.85
2022-10-30T03:25:47.956Z,100104.88
2022-10-30T03:28:16.869Z,100103.51
2022-10-30T03:30:46.205Z,100102.05
2022-10-30T03:33:16.307Z,100114.96
2022-10-30T03:35:45.401Z,100112.13
2022-10-30T03:38:15.142Z,100118.61
2022-10-30T03:40:44.601Z,100115.02
2022-10-30T03:43:13.723Z,100117.98
2022-10-30T03:45:49.588Z,100119.05
2022-10-30T03:48:22.278Z,100128.37
2022-10-30T03:50:57.917Z,100115.68
2022-10-30T03:53:28.336Z,100110.63
2022-10-30T03:56:00.500Z,100120.17
2022-10-30T03:58:30.319Z,100126.20
2022-10-30T04:01:04.527Z,100120.39
2022-10-30T04:03:37.374Z,100114.58
2022-10-30T04:06:09.248Z,100114.27
2022-10-30T04:08:40.037Z,100120.52
2022-10-30T04:11:11.628Z,100117.69
2022-10-30T04:13:42.978Z,100118.94
2022-10-30T04:16:13.491Z,100116.19
2022-10-30T04:18:43.416Z,100112.91
2022-10-30T04:21:15.126Z,100105.72
2022-10-30T04:23:45.419Z,100114.63
2022-10-30T04:26:15.573Z,100110.80
2022-10-30T04:28:48.257Z,100107.09
2022-10-30T04:31:18.068Z,100111.53
2022-10-30T04:33:48.306Z,100118.31
2022-10-30T04:36:18.353Z,100118.53
2022-10-30T04:38:47.831Z,100124.34
2022-10-30T04:41:17.788Z,100124.13
2022-10-30T04:43:51.245Z,100129.31
2022-10-30T04:46:20.445Z,100124.97
2022-10-30T04:48:50.666Z,100127.00
2022-10-30T04:51:21.425Z,100122.03
2022-10-30T04:53:50.355Z,100135.25
2022-10-30T04:56:19.786Z,100130.28
2022-10-30T04:58:50.020Z,100139.91
2022-10-30T05:01:20.063Z,100135.78
2022-10-30T05:03:52.044Z,100141.79
2022-10-30T05:06:25.250Z,100144.23
2022-10-30T05:08:56.008Z,100147.29
2022-10-30T05:11:30.992Z,100148.89
2022-10-30T05:14:00.902Z,100158.30
2022-10-30T05:16:31.693Z,100158.83
2022-10-30T05:19:03.017Z,100165.39
2022-10-30T05:21:33.327Z,100155.55
2022-10-30T05:24:03.692Z,100166.23
2022-10-30T05:26:35.997Z,100167.30
2022-10-30T05:29:06.377Z,100169.73
2022-10-30T05:31:35.737Z,100179.90
2022-10-30T05:34:09.111Z,100171.33
2022-10-30T05:36:40.233Z,100177.36
2022-10-30T05:39:10.887Z,100181.80
2022-10-30T05:41:42.185Z,100187.09
2022-10-30T05:44:12.261Z,100187.09
2022-10-30T05:46:43.550Z,100197.03
2022-10-30T05:49:27.812Z,100192.38
2022-10-30T05:51:58.654Z,100201.16
2022-10-30T05:54:28.375Z,100198.62
2022-10-30T05:57:02.449Z,100200.31
2022-10-30T05:59:31.966Z,100200.09
2022-10-30T06:02:00.795Z,100204.56
2022-10-30T06:04:31.708Z,100210.91
2022-10-30T06:07:02.054Z,100215.88
2022-10-30T06:09:31.082Z,100217.03
2022-10-30T06:12:02.243Z,100211.00
2022-10-30T06:14:37.188Z,100221.78
2022-10-30T06:17:08.182Z,100216.50
2022-10-30T06:19:54.356Z,100218.72
2022-10-30T06:22:31.338Z,100221.88
2022-10-30T06:25:03.054Z,100222.84
2022-10-30T06:27:36.944Z,100226.88
2022-10-30T06:30:08.352Z,100229.63
2022-10-30T06:32:39.636Z,100232.07
2022-10-30T06:35:10.706Z,100218.72
2022-10-30T06:37:48.423Z,100220.63
2022-10-30T06:40:18.168Z,100220.41
2022-10-30T06:42:51.901Z,100232.57
2022-10-30T06:45:26.136Z,100227.20
2022-10-30T06:47:56.671Z,100227.51
2022-10-30T06:50:26.351Z,100232.26
2022-10-30T06:52:57.107Z,100228.85
2022-10-30T06:55:27.871Z,100237.95
2022-10-30T06:58:16.125Z,100233.29
2022-10-30T07:00:47.182Z,100232.54
2022-10-30T07:03:34.453Z,100238.89
2022-10-30T07:06:04.503Z,100238.14
2022-10-30T07:08:34.585Z,100241.20
2022-10-30T07:11:05.578Z,100255.05
2022-10-30T07:13:53.339Z,100252.08
2022-10-30T07:16:39.409Z,100254.42
2022-10-30T07:19:09.370Z,100246.20
2022-10-30T07:21:40.484Z,100252.14
2022-10-30T07:24:10.431Z,100244.11
2022-10-30T07:26:48.492Z,100236.92
2022-10-30T07:29:26.128Z,100235.64
2022-10-30T07:32:10.827Z,100244.52
2022-10-30T07:34:47.668Z,100249.48
2022-10-30T07:37:36.430Z,100245.05
2022-10-30T07:40:13.189Z,100240.08
2022-10-30T07:42:47.852Z,100239.45
2022-10-30T07:45:31.589Z,100241.89
2022-10-30T07:48:19.394Z,100236.08
2022-10-30T07:50:51.841Z,100240.64
2022-10-30T07:53:22.415Z,100231.01
2022-10-30T07:55:52.074Z,100239.27
2022-10-30T07:58:45.201Z,100231.41
2022-10-30T08:01:14.432Z,100229.41
2022-10-30T08:03:45.651Z,100223.28
2022-10-30T08:06:22.960Z,100249.20
2022-10-30T08:08:52.547Z,100239.26
2022-10-30T08:11:30.768Z,100246.67
2022-10-30T08:14:01.490Z,100241.17
2022-10-30T08:16:31.693Z,100249.95
2022-10-30T08:19:01.238Z,100254.61
2022-10-30T08:21:30.962Z,100244.66
2022-10-30T08:24:02.656Z,100257.36
2022-10-30T08:26:35.399Z,100251.11
2022-10-30T08:29:05.094Z,100265.59
2022-10-30T08:31:35.446Z,100257.67
2022-10-30T08:34:05.276Z,100251.64
2022-10-30T08:36:38.944Z,100254.48
2022-10-30T08:39:08.239Z,100255.20
2022-10-30T08:41:49.755Z,100254.45
2022-10-30T08:44:22.210Z,100256.02
2022-10-30T08:47:09.696Z,100260.15
2022-10-30T08:49:41.451Z,100258.77
2022-10-30T08:52:10.878Z,100266.50
2022-10-30T08:54:42.728Z,100265.34
2022-10-30T08:57:13.452Z,100274.56
2022-10-30T08:59:42.663Z,100270.13
2022-10-30T09:02:14.741Z,100264.40
2022-10-30T09:05:02.753Z,100265.77
2022-10-30T09:07:43.996Z,100263.56
2022-10-30T09:10:20.161Z,100257.52
2022-10-30T09:12:57.211Z,100262.71
2022-10-30T09:15:27.821Z,100251.70
2022-10-30T09:18:01.496Z,100254.45
2022-10-30T09:20:33.414Z,100261.65
2022-10-30T09:23:03.363Z,100244.39
2022-10-30T09:25:33.126Z,100247.14
2022-10-30T09:28:16.656Z,100251.27
2022-10-30T09:30:52.184Z,100252.64
2022-10-30T09:33:21.827Z,100252.20
2022-10-30T09:35:59.441Z,100252.61
2022-10-30T09:38:30.252Z,100246.76
2022-10-30T09:41:17.516Z,100252.98
2022-10-30T09:44:08.748Z,100251.16
2022-10-30T09:46:54.505Z,100245.75
2022-10-30T09:49:44.077Z,100253.06
2022-10-30T09:52:29.698Z,100247.56
2022-10-30T09:55:25.891Z,100241.44
2022-10-30T09:58:19.488Z,100252.45
2022-10-30T10:01:13.823Z,100253.60
2022-10-30T10:04:02.188Z,100247.56
2022-10-30T10:06:34.217Z,100240.23
2022-10-30T10:09:10.077Z,100242.99
2022-10-30T10:12:09.977Z,100236.11
2022-10-30T10:14:45.097Z,100236.73
2022-10-30T10:17:20.134Z,100238.11
2022-10-30T10:19:59.974Z,100237.80
2022-10-30T10:22:43.099Z,100240.64
2022-10-30T10:25:15.112Z,100239.05
2022-10-30T10:28:02.184Z,100233.63
2022-10-30T10:30:43.086Z,100232.56
2022-10-30T10:33:25.836Z,100235.54
2022-10-30T10:36:03.335Z,100237.22
2022-10-30T10:38:46.971Z,100235.31
2022-10-30T10:41:53.851Z,100230.13
2022-10-30T10:44:33.144Z,100236.47
2022-10-30T10:47:16.060Z,100232.12
2022-10-30T10:50:22.219Z,100235.00
2022-10-30T10:53:02.225Z,100225.98
2022-10-30T10:55:36.440Z,100215.59
2022-10-30T10:58:30.009Z,100216.43
2022-10-30T11:00:59.085Z,100216.96
2022-10-30T11:03:33.488Z,100210.48
2022-10-30T11:06:27.742Z,100211.94
2022-10-30T11:09:19.446Z,100203.98
2022-10-30T11:11:49.574Z,100211.72
2022-10-30T11:14:23.258Z,100203.45
2022-10-30T11:17:15.427Z,100198.56
2022-10-30T11:19:47.875Z,100201.41
2022-10-30T11:22:24.301Z,100196.83
2022-10-30T11:24:53.373Z,100176.40
2022-10-30T11:27:28.151Z,100187.11
2022-10-30T11:30:05.516Z,100190.48
2022-10-30T11:32:35.143Z,100183.14
2022-10-30T11:35:12.542Z,100187.59
2022-10-30T11:37:42.929Z,100180.70
2022-10-30T11:40:23.224Z,100170.52
2022-10-30T11:43:01.293Z,100171.91
2022-10-30T11:45:41.429Z,100172.52
2022-10-30T11:48:21.955Z,100178.95
2022-10-30T11:50:52.978Z,100179.27
2022-10-30T11:53:38.139Z,100168.47
2022-10-30T11:56:17.291Z,100178.34
2022-10-30T11:58:52.403Z,100178.11
2022-10-30T12:01:35.821Z,100169.00
2022-10-30T12:04:22.846Z,100184.07
2022-10-30T12:07:16.417Z,100181.23
2022-10-30T12:09:49.670Z,100191.09
2022-10-30T12:12:34.073Z,100170.36
2022-10-30T12:15:17.724Z,100175.86
2022-10-30T12:18:01.851Z,100174.71
2022-10-30T12:20:32.949Z,100165.30
2022-10-30T12:23:22.283Z,100164.68
2022-10-30T12:25:57.415Z,100159.79
2022-10-30T12:28:28.637Z,100162.55
2022-10-30T12:31:08.789Z,100164.53
2022-10-30T12:33:52.364Z,100157.96
2022-10-30T12:36:26.958Z,100160.72
2022-10-30T12:39:06.979Z,100162.63
2022-10-30T12:41:45.124Z,100162.94
2022-10-30T12:44:27.938Z,100168.22
2022-10-30T12:47:22.312Z,100171.05
2022-10-30T12:49:52.276Z,100165.77
2022-10-30T12:52:47.044Z,100160.80
2022-10-30T12:55:39.434Z,100173.19
2022-10-30T12:59:03.522Z,100179.23
2022-10-30T13:01:37.136Z,100174.80
2022-10-30T13:04:25.479Z,100177.23
2022-10-30T13:07:41.856Z,100184.58
2022-10-30T13:10:36.604Z,100181.20
2022-10-30T13:13:34.706Z,100184.80
2022-10-30T13:16:10.335Z,100181.73
2022-10-30T13:18:39.614Z,100183.64
2022-10-30T13:21:31.976Z,100176.77
2022-10-30T13:24:19.658Z,100159.00
2022-10-30T13:26:54.335Z,100163.05
2022-10-30T13:29:50.683Z,100168.78
2022-10-30T13:32:40.451Z,100179.17
2022-10-30T13:35:41.959Z,100179.70
2022-10-30T13:38:42.649Z,100183.41
2022-10-30T13:41:44.688Z,100186.70
2022-10-30T13:44:44.993Z,100186.61
2022-10-30T13:47:44.059Z,100188.96
2022-10-30T13:50:31.835Z,100192.69
2022-10-30T13:53:02.872Z,100192.38
2022-10-30T13:55:33.948Z,100199.93
2022-10-30T13:58:16.990Z,100200.16
2022-10-30T14:01:09.075Z,100189.89
2022-10-30T14:03:55.391Z,100193.71
2022-10-30T14:07:10.943Z,100198.59
2022-10-30T14:09:45.793Z,100203.56
2022-10-30T14:12:52.388Z,100193.41
2022-10-30T14:15:33.931Z,100182.39
2022-10-30T14:18:26.908Z,100163.26
2022-10-30T14:20:57.629Z,100171.65
2022-10-30T14:23:36.196Z,100174.09
2022-10-30T14:26:13.811Z,100161.93
2022-10-30T14:28:44.956Z,100150.83
2022-10-30T14:31:18.598Z,100171.06
2022-10-30T14:33:51.593Z,100162.63
2022-10-30T14:36:36.534Z,100173.23
2022-10-30T14:39:14.514Z,100177.23
2022-10-30T14:42:28.517Z,100171.20
2022-10-30T14:45:02.704Z,100155.45
2022-10-30T14:48:15.053Z,100164.77
2022-10-30T14:51:09.769Z,100170.80
2022-10-30T14:54:07.016Z,100155.05
2022-10-30T14:56:49.737Z,100146.70
2022-10-30T14:59:23.682Z,100144.93
2022-10-30T15:02:16.153Z,100161.74
2022-10-30T15:05:21.737Z,100167.16
2022-10-30T15:07:59.838Z,100154.91
2022-10-30T15:10:36.088Z,100155.87
2022-10-30T15:13:19.439Z,100165.09
2022-10-30T15:16:08.579Z,100161.41
2022-10-30T15:18:37.649Z,100169.34
2022-10-30T15:21:08.507Z,100160.24
2022-10-30T15:23:38.289Z,100158.87
2022-10-30T15:26:11.786Z,100152.75
2022-10-30T15:28:42.081Z,100160.69
2022-10-30T15:31:28.330Z,100154.88
2022-10-30T15:33:58.101Z,100160.59
2022-10-30T15:36:39.061Z,100153.09
2022-10-30T15:39:17.421Z,100148.34
2022-10-30T15:42:00.381Z,100156.48
2022-10-30T15:44:32.811Z,100143.71
2022-10-30T15:47:04.489Z,100150.48
2022-10-30T15:49:38.814Z,100158.95
2022-10-30T15:52:21.535Z,100159.17
2022-10-30T15:54:55.782Z,100154.73
2022-10-30T15:57:57.357Z,100160.97
2022-10-30T16:00:06.165Z,100155.16
2022-10-30T16:02:36.469Z,100154.01
2022-10-30T16:05:23.408Z,100155.06
2022-10-30T16:07:59.743Z,100158.56
2022-10-30T16:10:35.886Z,100152.13
2022-10-30T16:13:05.409Z,100153.50
2022-10-30T16:15:36.088Z,100149.06
2022-10-30T16:18:15.219Z,100149.28
2022-10-30T16:20:47.777Z,100147.59
2022-10-30T16:23:18.296Z,100142.53
2022-10-30T16:25:48.383Z,100132.28
2022-10-30T16:28:37.874Z,100127.53
2022-10-30T16:31:08.355Z,100127.72
2022-10-30T16:33:40.501Z,100119.91
2022-10-30T16:36:14.707Z,100124.56
2022-10-30T16:38:46.612Z,100128.80
2022-10-30T16:41:16.484Z,100132.08
2022-10-30T16:43:50.986Z,100127.54
2022-10-30T16:46:53.014Z,100126.70
2022-10-30T16:49:27.862Z,100119.20
2022-10-30T16:52:04.884Z,100122.06
2022-10-30T16:54:40.774Z,100134.85
2022-10-30T16:57:23.562Z,100133.69
2022-10-30T16:59:53.604Z,100137.50
2022-10-30T17:02:27.621Z,100138.56
2022-10-30T17:05:10.108Z,100140.36
2022-10-30T17:07:39.807Z,100136.98
2022-10-30T17:10:38.525Z,100130.23
2022-10-30T17:13:41.458Z,100130.12
2022-10-30T17:16:25.696Z,100124.00
2022-10-30T17:19:02.873Z,100125.81
2022-10-30T17:21:40.983Z,100123.48
2022-10-30T17:24:22.510Z,100116.31
2022-10-30T17:26:57.588Z,100128.87
2022-10-30T17:29:44.256Z,100119.80
2022-10-30T17:32:23.751Z,100117.58
2022-10-30T17:35:10.748Z,100112.83
2022-10-30T17:37:39.597Z,100107.55
2022-10-30T17:40:10.574Z,100113.26
2022-10-30T17:42:39.934Z,100109.35
2022-10-30T17:45:13.747Z,100111.47
2022-10-30T17:47:44.512Z,100114.39
2022-10-30T17:50:15.259Z,100115.66
2022-10-30T17:52:46.077Z,100117.77
2022-10-30T17:55:23.852Z,100112.99
2022-10-30T17:57:53.587Z,100114.89
2022-10-30T18:00:23.297Z,100109.52
2022-10-30T18:02:53.442Z,100107.92
2022-10-30T18:05:25.802Z,100104.87
2022-10-30T18:07:56.236Z,100104.23
2022-10-30T18:10:26.780Z,100102.02
2022-10-30T18:12:55.956Z,100094.63
2022-10-30T18:15:32.866Z,100103.70
2022-10-30T18:18:04.297Z,100096.53
2022-10-30T18:20:34.661Z,100100.33
2022-10-30T18:23:12.773Z,100098.33
2022-10-30T18:25:43.828Z,100108.36
2022-10-30T18:28:14.662Z,100105.72
2022-10-30T18:30:53.736Z,100108.14
2022-10-30T18:33:22.774Z,100100.33
2022-10-30T18:35:56.954Z,100093.90
2022-10-30T18:38:28.521Z,100096.11
2022-10-30T18:40:59.397Z,100095.69
2022-10-30T18:43:28.238Z,100102.55
2022-10-30T18:45:57.766Z,100100.55
2022-10-30T18:48:29.168Z,100102.45
2022-10-30T18:50:58.348Z,100099.38
2022-10-30T18:53:32.729Z,100096.33
2022-10-30T18:55:59.300Z,100097.70
2022-10-30T18:58:28.650Z,100110.25
2022-10-30T19:01:11.474Z,100091.78
2022-10-30T19:03:31.401Z,100101.07
2022-10-30T19:06:00.811Z,100103.49
2022-10-30T19:08:29.992Z,100113.09
2022-10-30T19:11:10.712Z,100111.94
2022-10-30T19:13:42.719Z,100113.30
2022-10-30T19:16:15.047Z,100106.66
2022-10-30T19:18:44.979Z,100104.34
2022-10-30T19:21:22.676Z,100106.55
2022-10-30T19:23:56.225Z,100106.55
2022-10-30T19:26:26.089Z,100097.16
2022-10-30T19:28:56.629Z,100090.72
2022-10-30T19:31:26.226Z,100089.03
2022-10-30T19:33:57.872Z,100089.35
2022-10-30T19:36:36.905Z,100092.94
2022-10-30T19:39:16.015Z,100093.78
2022-10-30T19:41:46.548Z,100096.53
2022-10-30T19:44:17.726Z,100098.42
2022-10-30T19:46:47.345Z,100099.27
2022-10-30T19:49:20.396Z,100102.75
2022-10-30T19:51:49.660Z,100096.42
2022-10-30T19:54:18.452Z,100104.01
2022-10-30T19:56:47.786Z,100098.73
2022-10-30T19:59:18.624Z,100094.63
2022-10-30T20:01:48.855Z,100092.09
2022-10-30T20:04:18.782Z,100095.67
2022-10-30T20:06:49.070Z,100099.47
2022-10-30T20:09:18.201Z,100100.52
2022-10-30T20:11:48.488Z,100095.88
2022-10-30T20:14:17.728Z,100092.30
2022-10-30T20:16:48.407Z,100091.77
2022-10-30T20:19:30.452Z,100093.98
2022-10-30T20:22:00.477Z,100086.17
2022-10-30T20:24:30.445Z,100089.66
2022-10-30T20:26:59.603Z,100089.86
2022-10-30T20:29:28.927Z,100087.65
2022-10-30T20:31:57.799Z,100082.38
2022-10-30T20:34:28.893Z,100091.66
2022-10-30T20:36:59.449Z,100079.48
2022-10-30T20:39:28.023Z,100079.70
2022-10-30T20:41:58.798Z,100088.77
2022-10-30T20:44:28.321Z,100086.88
2022-10-30T20:46:57.861Z,100075.48
2022-10-30T20:49:40.244Z,100085.08
2022-10-30T20:52:09.477Z,100079.27
2022-10-30T20:54:39.189Z,100081.70
2022-10-30T20:57:08.510Z,100082.22
2022-10-30T20:59:38.761Z,100080.33
2022-10-30T21:02:11.570Z,100083.80
2022-10-30T21:04:43.108Z,100081.48
2022-10-30T21:07:13.718Z,100081.89
2022-10-30T21:09:43.154Z,100077.46
2022-10-30T21:12:13.048Z,100081.58
2022-10-30T21:14:43.239Z,100076.30
2022-10-30T21:17:12.915Z,100075.77
2022-10-30T21:19:42.265Z,100076.30
2022-10-30T21:22:11.286Z,100077.67
2022-10-30T21:24:40.374Z,100070.39
2022-10-30T21:27:10.169Z,100068.17
2022-10-30T21:29:40.052Z,100065.33
2022-10-30T21:32:10.228Z,100069.96
2022-10-30T21:34:39.208Z,100057.83
2022-10-30T21:37:08.340Z,100064.37
2022-10-30T21:39:37.809Z,100058.56
2022-10-30T21:42:08.477Z,100069.53
2022-10-30T21:44:37.564Z,100074.16
2022-10-30T21:47:06.659Z,100071.31
2022-10-30T21:49:35.776Z,100074.15
2022-10-30T21:52:06.366Z,100060.97
2022-10-30T21:54:36.482Z,100063.50
2022-10-30T21:57:06.574Z,100065.61
2022-10-30T21:59:35.921Z,100059.49
2022-10-30T22:02:05.721Z,100064.02
2022-10-30T22:04:34.935Z,100059.06
2022-10-30T22:07:03.860Z,100056.94
2022-10-30T22:09:34.317Z,100060.73
2022-10-30T22:12:05.429Z,100054.20
2022-10-30T22:14:34.911Z,100060.00
2022-10-30T22:17:03.575Z,100058.84
2022-10-30T22:19:34.175Z,100051.88
2022-10-30T22:22:04.390Z,100056.52
2022-10-30T22:24:34.324Z,100054.50
2022-10-30T22:27:04.075Z,100043.95
2022-10-30T22:29:34.188Z,100045.42
2022-10-30T22:32:03.830Z,100042.05
2022-10-30T22:34:33.189Z,100043.61
2022-10-30T22:37:02.148Z,100045.19
2022-10-30T22:39:32.224Z,100041.25
2022-10-30T22:42:01.151Z,100046.73
2022-10-30T22:44:29.979Z,100049.16
2022-10-30T22:46:58.665Z,100044.09
2022-10-30T22:49:27.997Z,100035.76
2022-10-30T22:51:56.794Z,100035.64
2022-10-30T22:54:26.980Z,100032.58
2022-10-30T22:56:56.473Z,100034.68
2022-10-30T22:59:27.528Z,100031.94
2022-10-30T23:01:57.384Z,100025.83
2022-10-30T23:04:27.181Z,100025.83
2022-10-30T23:06:55.947Z,100021.92
2022-10-30T23:09:25.457Z,100024.34
2022-10-30T23:11:54.153Z,100019.92
2022-10-30T23:14:24.624Z,100027.61
2022-10-30T23:16:53.807Z,100024.55
2022-10-30T23:19:23.652Z,100029.35
2022-10-30T23:21:57.254Z,100030.40
2022-10-30T23:24:26.453Z,100035.44
2022-10-30T23:26:56.207Z,100040.91
2022-10-30T23:29:25.859Z,100030.81
2022-10-30T23:31:55.167Z,100028.80
2022-10-30T23:34:25.215Z,100031.86
2022-10-30T23:36:59.131Z,100029.84
2022-10-30T23:39:28.355Z,100034.68
2022-10-30T23:41:57.340Z,100026.15
2022-10-30T23:44:28.467Z,100033.52
2022-10-30T23:46:58.644Z,100024.14
2022-10-30T23:49:33.093Z,100026.55
2022-10-30T23:51:58.740Z,100030.55
2022-10-30T23:54:29.069Z,100033.28
2022-10-30T23:56:57.991Z,100038.11
2022-10-30T23:59:27.481Z,100037.47
